Time;durP1;ratioP1;P1;durP2;ratioP2;P2;SDS_P1;SDS_P2;PMS_P1;PMS_P2;Temp;Humidity;BMP_temperature;BMP_pressure;BME280_temperature;BME280_humidity;BME280_pressure;Samples;Min_cycle;Max_cycle;Signal;HPM_P1;HPM_P2
2023/11/10 00:04:14;;;;;;;6.50;3.58;;;;;;;;;;12821199;22;20027;-69
2023/11/10 00:09:14;;;;;;;8.10;3.30;;;;;;;;;;12802688;22;20465;-69
2023/11/10 00:14:27;;;;;;;5.78;2.78;;;;;;;;;;12815748;22;20060;-70
2023/11/10 00:19:36;;;;;;;6.63;3.10;;;;;;;;;;12820949;22;20632;-69
2023/11/10 00:24:39;;;;;;;5.32;3.13;;;;;;;;;;12830184;22;20122;-68
2023/11/10 00:29:44;;;;;;;9.38;3.65;;;;;;;;;;12821465;22;20092;-67
2023/11/10 00:34:50;;;;;;;6.32;3.38;;;;;;;;;;12820644;22;20062;-67
2023/11/10 00:39:47;;;;;;;5.28;3.80;;;;;;;;;;12820497;22;20023;-67
2023/11/10 00:44:48;;;;;;;6.55;3.63;;;;;;;;;;12820314;22;20093;-68
2023/11/10 00:49:47;;;;;;;8.80;3.75;;;;;;;;;;12819875;22;20019;-68
2023/11/10 00:54:47;;;;;;;4.13;3.28;;;;;;;;;;12802475;22;20015;-67
2023/11/10 00:59:46;;;;;;;5.82;3.63;;;;;;;;;;12820053;22;20028;-68
2023/11/10 01:04:43;;;;;;;8.00;3.30;;;;;;;;;;12829651;22;20374;-68
2023/11/10 01:09:39;;;;;;;6.38;3.00;;;;;;;;;;12814806;22;20026;-68
2023/11/10 01:14:36;;;;;;;4.13;2.67;;;;;;;;;;12819601;22;20023;-68
2023/11/10 01:19:33;;;;;;;4.32;2.63;;;;;;;;;;12817754;22;20031;-68
2023/11/10 01:24:34;;;;;;;6.95;2.72;;;;;;;;;;12820210;22;20023;-68
2023/11/10 01:29:35;;;;;;;8.73;2.70;;;;;;;;;;12820446;22;20019;-68
2023/11/10 01:34:34;;;;;;;3.10;2.80;;;;;;;;;;12819969;22;20019;-68
2023/11/10 01:39:33;;;;;;;3.67;2.63;;;;;;;;;;12820070;22;20027;-68
2023/11/10 01:44:33;;;;;;;4.30;2.95;;;;;;;;;;12829811;22;20107;-69
2023/11/10 01:49:33;;;;;;;3.20;2.47;;;;;;;;;;12819532;22;20077;-69
2023/11/10 01:54:34;;;;;;;7.22;3.20;;;;;;;;;;12819364;22;20682;-70
2023/11/10 01:59:33;;;;;;;4.73;3.07;;;;;;;;;;12819151;22;20080;-70
2023/11/10 02:04:33;;;;;;;4.60;2.90;;;;;;;;;;12813621;22;20031;-69
2023/11/10 02:09:30;;;;;;;5.90;3.75;;;;;;;;;;12814055;22;20350;-69
2023/11/10 02:14:35;;;;;;;3.33;2.95;;;;;;;;;;12813510;22;20076;-68
2023/11/10 02:19:35;;;;;;;3.70;3.38;;;;;;;;;;12818418;22;20532;-69
2023/11/10 02:24:34;;;;;;;4.25;3.10;;;;;;;;;;12804626;22;20498;-70
2023/11/10 02:29:31;;;;;;;4.35;3.47;;;;;;;;;;12817718;22;20068;-70
2023/11/10 02:34:30;;;;;;;4.75;3.65;;;;;;;;;;12817736;22;20026;-71
2023/11/10 02:39:37;;;;;;;5.20;3.58;;;;;;;;;;12817134;22;20081;-69
2023/11/10 02:44:37;;;;;;;5.15;3.72;;;;;;;;;;12818016;22;20019;-69
2023/11/10 02:49:36;;;;;;;5.32;4.10;;;;;;;;;;12817037;22;20061;-70
2023/11/10 02:54:35;;;;;;;5.95;4.03;;;;;;;;;;12815537;22;20484;-68
2023/11/10 02:59:38;;;;;;;6.32;4.35;;;;;;;;;;12817455;22;20055;-68
2023/11/10 03:04:36;;;;;;;;;;;;;;;;;;12816008;22;20031;-68
2023/11/10 03:09:43;;;;;;;5.60;4.50;;;;;;;;;;12816063;22;19922;-69
2023/11/10 03:14:40;;;;;;;4.75;4.35;;;;;;;;;;12813752;22;20023;-69
2023/11/10 03:19:40;;;;;;;4.75;4.18;;;;;;;;;;12812334;22;20077;-69
2023/11/10 03:24:45;;;;;;;6.20;4.45;;;;;;;;;;12815989;22;20369;-69
2023/11/10 03:29:45;;;;;;;7.90;4.78;;;;;;;;;;12820918;22;20034;-69
2023/11/10 03:34:42;;;;;;;6.50;4.43;;;;;;;;;;12819013;22;20023;-70
2023/11/10 03:39:39;;;;;;;5.80;4.55;;;;;;;;;;12820214;22;20058;-69
2023/11/10 03:44:56;;;;;;;6.22;5.18;;;;;;;;;;12818246;22;20055;-70
2023/11/10 03:49:53;;;;;;;6.00;4.78;;;;;;;;;;12820649;22;20028;-69
2023/11/10 03:54:50;;;;;;;6.25;5.10;;;;;;;;;;12818372;22;20372;-70
2023/11/10 03:59:52;;;;;;;7.43;5.00;;;;;;;;;;12817709;22;20114;-68
2023/11/10 04:04:51;;;;;;;5.45;4.95;;;;;;;;;;12818443;22;20027;-69
2023/11/10 04:09:48;;;;;;;8.70;4.90;;;;;;;;;;12815191;22;20042;-68
2023/11/10 04:14:46;;;;;;;9.57;6.03;;;;;;;;;;12820629;22;20023;-68
2023/11/10 04:19:43;;;;;;;6.22;5.57;;;;;;;;;;12816537;22;20027;-68
2023/11/10 04:24:44;;;;;;;6.65;6.05;;;;;;;;;;12818018;22;20522;-68
2023/11/10 04:29:47;;;;;;;8.45;6.22;;;;;;;;;;12824229;22;20023;-69
2023/11/10 04:34:44;;;;;;;6.85;6.25;;;;;;;;;;12824005;22;20364;-70
2023/11/10 04:39:45;;;;;;;11.38;6.50;;;;;;;;;;12823932;22;20024;-69
2023/11/10 04:44:44;;;;;;;9.33;6.20;;;;;;;;;;12824078;22;20032;-70
2023/11/10 04:49:41;;;;;;;7.60;6.35;;;;;;;;;;12823316;22;20511;-69
2023/11/10 04:54:41;;;;;;;6.82;6.13;;;;;;;;;;12832105;22;20348;-69
2023/11/10 04:59:39;;;;;;;6.28;5.68;;;;;;;;;;12822773;22;20110;-69
2023/11/10 05:04:39;;;;;;;11.48;5.85;;;;;;;;;;12822267;22;20416;-70
2023/11/10 05:09:43;;;;;;;9.80;5.32;;;;;;;;;;12823001;22;20338;-70
2023/11/10 05:14:43;;;;;;;6.68;6.07;;;;;;;;;;12821144;22;20019;-69
2023/11/10 05:19:52;;;;;;;7.57;6.03;;;;;;;;;;12816569;22;20108;-70
2023/11/10 05:24:52;;;;;;;6.00;5.43;;;;;;;;;;12813354;22;20031;-70
2023/11/10 05:29:52;;;;;;;6.82;6.03;;;;;;;;;;12817496;22;20034;-69
2023/11/10 05:34:54;;;;;;;6.18;5.57;;;;;;;;;;12818512;22;20032;-71
2023/11/10 05:39:51;;;;;;;6.70;6.00;;;;;;;;;;12821464;22;20031;-72
2023/11/10 05:44:52;;;;;;;6.80;6.10;;;;;;;;;;12822146;22;20144;-71
2023/11/10 05:49:57;;;;;;;6.63;6.03;;;;;;;;;;12817029;22;20770;-70
2023/11/10 05:54:54;;;;;;;6.70;5.55;;;;;;;;;;12819414;22;20789;-70
2023/11/10 05:59:56;;;;;;;5.65;5.15;;;;;;;;;;12820434;22;20031;-71
2023/11/10 06:04:52;;;;;;;8.98;5.65;;;;;;;;;;12830297;22;20114;-70
2023/11/10 06:09:55;;;;;;;6.93;5.85;;;;;;;;;;12820964;22;20690;-70
2023/11/10 06:14:55;;;;;;;6.13;5.38;;;;;;;;;;12821065;22;20023;-71
2023/11/10 06:19:53;;;;;;;10.82;5.30;;;;;;;;;;12819309;22;20027;-70
2023/11/10 06:25:04;;;;;;;7.95;5.10;;;;;;;;;;12813639;22;20515;-70
2023/11/10 06:30:06;;;;;;;9.25;5.75;;;;;;;;;;12812469;22;20084;-71
2023/11/10 06:35:10;;;;;;;7.80;5.40;;;;;;;;;;12819141;22;20027;-71
2023/11/10 06:40:07;;;;;;;7.78;5.30;;;;;;;;;;12820371;22;20356;-71
2023/11/10 06:45:04;;;;;;;7.30;5.03;;;;;;;;;;12818530;22;20452;-71
2023/11/10 06:50:10;;;;;;;7.03;4.57;;;;;;;;;;12821670;22;20019;-71
2023/11/10 06:55:13;;;;;;;8.55;5.00;;;;;;;;;;12814340;22;20019;-71
2023/11/10 07:00:11;;;;;;;7.57;5.40;;;;;;;;;;12818263;22;20106;-71
2023/11/10 07:05:15;;;;;;;7.55;5.03;;;;;;;;;;12819871;22;20542;-72
2023/11/10 07:10:34;;;;;;;8.07;5.28;;;;;;;;;;12783697;22;20023;-73
2023/11/10 07:15:33;;;;;;;6.18;4.40;;;;;;;;;;12772755;22;20016;-71
2023/11/10 07:20:35;;;;;;;6.60;4.25;;;;;;;;;;12753949;22;20488;-71
2023/11/10 07:25:34;;;;;;;6.93;4.43;;;;;;;;;;12747745;22;20027;-71
2023/11/10 07:30:37;;;;;;;6.67;4.70;;;;;;;;;;12767552;22;20035;-71
2023/11/10 07:35:42;;;;;;;6.25;4.15;;;;;;;;;;12749826;22;20497;-69
2023/11/10 07:40:41;;;;;;;6.53;4.47;;;;;;;;;;12755887;22;20119;-72
2023/11/10 07:45:39;;;;;;;7.00;4.55;;;;;;;;;;12756129;22;20080;-72
2023/11/10 07:56:26;;;;;;;6.40;4.10;;;;;;;;;;12679734;22;20016;-69
2023/11/10 08:01:24;;;;;;;5.43;4.28;;;;;;;;;;12776711;22;20051;-70
2023/11/10 08:06:23;;;;;;;6.43;3.97;;;;;;;;;;12756540;22;20020;-74
2023/11/10 08:11:20;;;;;;;10.00;3.85;;;;;;;;;;12757545;22;20028;-73
2023/11/10 08:33:28;;;;;;;4.85;4.10;;;;;;;;;;12513153;23;20026;-71
2023/11/10 08:38:31;;;;;;;9.05;4.20;;;;;;;;;;12458721;23;20112;-71
2023/11/10 08:43:32;;;;;;;5.13;3.93;;;;;;;;;;12500449;23;20021;-71
2023/11/10 08:48:29;;;;;;;6.35;4.28;;;;;;;;;;12507553;23;20530;-71
2023/11/10 08:53:34;;;;;;;9.82;4.32;;;;;;;;;;12505612;23;20076;-71
2023/11/10 08:58:57;;;;;;;;;;;;;;;;;;;;;
2023/11/10 09:04:23;;;;;;;4.00;3.53;;;;;;;;;;12747722;22;20103;-73
2023/11/10 09:15:04;;;;;;;7.28;4.22;;;;;;;;;;12727936;22;20086;-73
2023/11/10 09:26:01;;;;;;;6.70;4.20;;;;;;;;;;12683136;22;20024;-74
2023/11/10 09:42:58;;;;;;;5.93;3.88;;;;;;;;;;12759587;22;20016;-72
2023/11/10 09:47:58;;;;;;;7.53;3.97;;;;;;;;;;12756603;22;20031;-72
2023/11/10 09:52:58;;;;;;;5.63;3.97;;;;;;;;;;12746772;22;20030;-73
2023/11/10 09:57:59;;;;;;;6.72;5.03;;;;;;;;;;12758261;22;20070;-73
2023/11/10 10:02:58;;;;;;;5.47;3.93;;;;;;;;;;12757981;22;20638;-73
2023/11/10 10:07:59;;;;;;;6.50;3.63;;;;;;;;;;12758153;22;20023;-73
2023/11/10 10:13:01;;;;;;;6.50;3.80;;;;;;;;;;12758003;22;20030;-73
2023/11/10 10:18:13;;;;;;;5.32;4.00;;;;;;;;;;12755850;22;20035;-71
2023/11/10 10:23:10;;;;;;;7.00;3.60;;;;;;;;;;12757712;22;20469;-73
2023/11/10 10:28:12;;;;;;;5.72;3.67;;;;;;;;;;12758245;22;20031;-73
2023/11/10 10:33:17;;;;;;;5.75;3.95;;;;;;;;;;12768157;22;20024;-73
2023/11/10 10:38:30;;;;;;;8.27;4.20;;;;;;;;;;12745096;22;20102;-72
2023/11/10 10:55:27;;;;;;;4.40;3.92;;;;;;;;;;12601612;23;20189;-73
2023/11/10 11:12:40;;;;;;;6.60;4.63;;;;;;;;;;12722360;22;20377;-73
2023/11/10 11:17:48;;;;;;;8.65;4.40;;;;;;;;;;12781668;22;20047;-72
2023/11/10 11:22:52;;;;;;;15.27;5.05;;;;;;;;;;12756973;22;20050;-70
2023/11/10 11:33:29;;;;;;;7.22;4.03;;;;;;;;;;12758005;22;20016;-73
2023/11/10 11:38:26;;;;;;;7.05;4.05;;;;;;;;;;12720910;22;20019;-73
2023/11/10 11:43:30;;;;;;;8.65;4.25;;;;;;;;;;12756367;22;20020;-74
2023/11/10 11:48:35;;;;;;;6.88;4.07;;;;;;;;;;12756578;22;20081;-73
2023/11/10 11:53:40;;;;;;;6.45;4.60;;;;;;;;;;12756760;22;20047;-73
2023/11/10 12:05:13;;;;;;;6.65;4.30;;;;;;;;;;12697951;22;20016;-73
2023/11/10 12:10:51;;;;;;;;;;;;;;;;;;;;;
2023/11/10 12:16:20;;;;;;;7.43;4.20;;;;;;;;;;12785053;22;20012;-73
2023/11/10 12:21:34;;;;;;;5.63;4.03;;;;;;;;;;12756914;22;20461;-73
2023/11/10 12:26:38;;;;;;;4.47;4.07;;;;;;;;;;12757081;22;20027;-73
2023/11/10 12:31:38;;;;;;;8.38;5.00;;;;;;;;;;12754814;22;20689;-75
2023/11/10 12:37:14;;;;;;;;;;;;;;;;;;;;;
2023/11/10 13:00:38;;;;;;;5.35;4.80;;;;;;;;;;12644717;22;20048;-74
2023/11/10 13:11:56;;;;;;;6.50;5.25;;;;;;;;;;12478063;23;20037;-71
2023/11/10 13:16:56;;;;;;;6.13;4.82;;;;;;;;;;12637862;22;20553;-75
2023/11/10 13:21:54;;;;;;;8.90;5.25;;;;;;;;;;12757653;22;20024;-76
2023/11/10 13:26:50;;;;;;;9.45;4.97;;;;;;;;;;12732835;22;20035;-75
2023/11/10 13:31:51;;;;;;;8.13;4.80;;;;;;;;;;12758914;22;20034;-73
2023/11/10 13:42:39;;;;;;;5.82;4.38;;;;;;;;;;12733420;22;20016;-73
2023/11/10 13:48:06;;;;;;;7.63;5.03;;;;;;;;;;12697936;22;20020;-72
2023/11/10 13:54:08;;;;;;;6.32;5.15;;;;;;;;;;12637576;22;20028;-73
2023/11/10 13:59:05;;;;;;;6.55;4.70;;;;;;;;;;12695840;22;20032;-73
2023/11/10 14:04:02;;;;;;;8.88;5.18;;;;;;;;;;12696271;23;20028;-73
2023/11/10 14:09:01;;;;;;;8.18;5.32;;;;;;;;;;12689383;22;20024;-73
2023/11/10 14:14:01;;;;;;;7.78;5.18;;;;;;;;;;12696426;23;20024;-73
2023/11/10 14:19:15;;;;;;;;;;;;;;;;;;;;;
2023/11/10 14:25:23;;;;;;;9.30;5.43;;;;;;;;;;12675351;22;20024;-73
2023/11/10 14:30:15;;;;;;;7.75;4.80;;;;;;;;;;12753506;22;20081;-73
2023/11/10 14:35:16;;;;;;;7.18;4.80;;;;;;;;;;12695136;22;20091;-73
2023/11/10 14:40:16;;;;;;;12.32;6.03;;;;;;;;;;12755941;22;20023;-73
2023/11/10 14:45:21;;;;;;;6.15;4.82;;;;;;;;;;12754593;22;20020;-73
2023/11/10 14:50:36;;;;;;;8.60;4.65;;;;;;;;;;12751222;22;20480;-73
2023/11/10 14:55:38;;;;;;;7.03;4.72;;;;;;;;;;12751454;22;20020;-73
2023/11/10 15:00:36;;;;;;;7.38;4.60;;;;;;;;;;12753009;22;20016;-73
2023/11/10 15:05:37;;;;;;;5.57;4.68;;;;;;;;;;12754412;22;20043;-73
2023/11/10 15:10:35;;;;;;;5.25;4.65;;;;;;;;;;12723127;22;20050;-73
2023/11/10 15:15:38;;;;;;;6.32;5.05;;;;;;;;;;12744559;22;20028;-73
2023/11/10 15:20:43;;;;;;;7.47;5.38;;;;;;;;;;12755623;22;20327;-73
2023/11/10 15:25:45;;;;;;;6.97;4.97;;;;;;;;;;12757879;22;20107;-73
2023/11/10 15:30:46;;;;;;;8.38;5.40;;;;;;;;;;12757040;22;20085;-73
2023/11/10 15:35:46;;;;;;;6.75;5.05;;;;;;;;;;12757194;22;20040;-73
2023/11/10 15:40:54;;;;;;;5.22;4.53;;;;;;;;;;12757625;22;20023;-73
2023/11/10 15:46:00;;;;;;;7.00;4.82;;;;;;;;;;12731077;22;20030;-73
2023/11/10 15:51:02;;;;;;;6.45;5.05;;;;;;;;;;12756942;22;20027;-73
2023/11/10 15:56:04;;;;;;;5.97;5.20;;;;;;;;;;12757976;22;20035;-73
2023/11/10 16:01:06;;;;;;;5.57;4.82;;;;;;;;;;12727135;22;20015;-73
2023/11/10 16:06:07;;;;;;;9.05;5.57;;;;;;;;;;12757239;22;20374;-72
2023/11/10 16:11:03;;;;;;;6.05;5.40;;;;;;;;;;12785818;22;20520;-73
2023/11/10 16:16:02;;;;;;;9.25;5.70;;;;;;;;;;12820758;22;20015;-73
2023/11/10 16:20:59;;;;;;;10.55;5.18;;;;;;;;;;12822812;22;20392;-73
2023/11/10 16:26:03;;;;;;;7.45;6.18;;;;;;;;;;12822206;22;20030;-73
2023/11/10 16:31:00;;;;;;;7.72;6.03;;;;;;;;;;12819996;22;20461;-73
2023/11/10 16:36:00;;;;;;;8.32;6.22;;;;;;;;;;12814226;22;20102;-73
2023/11/10 16:41:02;;;;;;;6.50;5.40;;;;;;;;;;12821145;22;20088;-73
2023/11/10 16:46:09;;;;;;;6.70;5.57;;;;;;;;;;12821322;22;20027;-73
2023/11/10 16:51:10;;;;;;;10.00;5.10;;;;;;;;;;12817485;22;20027;-74
2023/11/10 18:20:15;;;;;;;7.23;4.77;;;;;;;;;;12792227;22;20085;-73
2023/11/10 18:25:13;;;;;;;7.05;5.22;;;;;;;;;;12820901;22;20019;-73
2023/11/10 18:35:41;;;;;;;7.03;5.00;;;;;;;;;;12809571;22;20019;-74
2023/11/10 19:02:56;;;;;;;6.43;4.22;;;;;;;;;;12755634;22;20110;-74
2023/11/10 19:07:53;;;;;;;6.35;4.38;;;;;;;;;;12795383;22;20026;-73
2023/11/10 19:12:49;;;;;;;5.78;4.22;;;;;;;;;;12795679;22;20031;-73
2023/11/10 19:23:02;;;;;;;6.45;4.25;;;;;;;;;;12763792;22;20027;-74
2023/11/10 19:44:24;;;;;;;9.10;4.15;;;;;;;;;;12688487;22;20020;-74
2023/11/10 20:57:30;;;;;;;10.95;4.30;;;;;;;;;;12662156;22;20028;-73
2023/11/10 21:02:28;;;;;;;7.90;4.05;;;;;;;;;;12725802;22;20404;-73
2023/11/10 21:35:53;;;;;;;4.07;3.65;;;;;;;;;;12829127;22;20015;-72
2023/11/10 21:40:50;;;;;;;7.25;3.80;;;;;;;;;;12843854;22;20042;-73
2023/11/10 21:45:50;;;;;;;8.07;4.50;;;;;;;;;;12815382;22;20061;-72
2023/11/10 21:50:47;;;;;;;7.60;4.40;;;;;;;;;;12831027;22;20102;-74
2023/11/10 21:55:45;;;;;;;7.85;4.63;;;;;;;;;;12885589;22;20052;-72
2023/11/10 22:00:42;;;;;;;5.72;4.63;;;;;;;;;;12739117;22;20047;-73
2023/11/10 22:05:41;;;;;;;6.47;4.65;;;;;;;;;;12758479;22;20066;-73
2023/11/10 22:22:37;;;;;;;5.68;4.55;;;;;;;;;;12885788;22;20023;-72
2023/11/10 22:55:19;;;;;;;7.50;3.97;;;;;;;;;;12816879;22;20030;-72
2023/11/10 23:23:26;;;;;;;7.07;4.32;;;;;;;;;;12765990;22;20015;-73
2023/11/10 23:28:22;;;;;;;7.70;4.95;;;;;;;;;;12848545;22;20376;-72
2023/11/10 23:33:20;;;;;;;6.22;5.22;;;;;;;;;;12883788;22;20346;-73
